aviador You're here:

EPLB Decoded Metar

in
Report Time2017-10-22 06:00:00
UTC Time2017-10-22 06:34:49
Flight Rules lifr LIFR
Wind090° at 08 kt
W.Rank090° ranks 9
Current wind is above 090° avg. (6.7)
Visibility1900 m
Phenomena:Mist
Clouds:Few 001 Hf
Overcast 002 Hf
Ceiling200 ft
Temp06°C
Dew Point06°C (100% RH)
AAT2.2°C
QNH1017 hPa
Raw Report
EPLB 220600Z 09008KT 1900 BR FEW001 OVC002 06/06 Q1017=

Extra information for EPLB:More info

Social comments